Time;durP1;ratioP1;P1;durP2;ratioP2;P2;SDS_P1;SDS_P2;PMS_P1;PMS_P2;Temp;Humidity;BMP_temperature;BMP_pressure;BME280_temperature;BME280_humidity;BME280_pressure;Samples;Min_cycle;Max_cycle;Signal;HPM_P1;HPM_P2
2023/04/02 00:03:04;;;;;;;1.23;0.50;;;;;;;13.10;55.71;98032.56;6160452;23;20150;-88
2023/04/02 00:05:49;;;;;;;1.00;0.53;;;;;;;12.91;56.17;98038.47;6039738;23;20188;-87
2023/04/02 00:08:23;;;;;;;1.20;0.47;;;;;;;13.24;55.29;98036.72;6067583;23;20148;-87
2023/04/02 00:10:51;;;;;;;0.90;0.60;;;;;;;13.26;55.47;98032.22;6160444;23;20187;-87
2023/04/02 00:13:21;;;;;;;1.53;0.60;;;;;;;13.58;54.04;98043.56;6187011;23;20149;-87
2023/04/02 00:15:49;;;;;;;1.57;0.67;;;;;;;13.62;53.30;98045.00;6186274;23;20572;-87
2023/04/02 00:18:17;;;;;;;0.80;0.40;;;;;;;13.64;53.35;98047.50;6186269;23;20221;-87
2023/04/02 00:20:47;;;;;;;1.10;0.40;;;;;;;13.65;53.14;98046.53;6186540;23;20159;-87
2023/04/02 00:23:13;;;;;;;1.03;0.70;;;;;;;13.49;53.43;98055.66;6186584;23;20139;-87
2023/04/02 00:25:44;;;;;;;0.80;0.40;;;;;;;13.39;53.95;98054.75;6160163;23;20516;-88
2023/04/02 00:28:15;;;;;;;1.97;0.53;;;;;;;13.34;54.20;98053.44;6186274;23;20133;-88
2023/04/02 00:30:54;;;;;;;1.60;0.50;;;;;;;13.30;53.67;98046.78;6186064;23;20161;-88
2023/04/02 00:33:22;;;;;;;1.20;0.40;;;;;;;13.36;53.82;98054.19;6186814;23;20146;-87
2023/04/02 00:35:51;;;;;;;0.83;0.30;;;;;;;13.07;54.56;98053.91;6186103;23;20177;-88
2023/04/02 00:38:29;;;;;;;0.77;0.40;;;;;;;13.05;54.08;98054.94;6186377;23;20512;-87
2023/04/02 00:40:58;;;;;;;0.60;0.40;;;;;;;13.10;53.68;98037.84;6186448;23;20142;-87
2023/04/02 00:43:29;;;;;;;1.07;0.53;;;;;;;13.12;54.00;98035.09;6185998;23;20146;-88
2023/04/02 00:46:00;;;;;;;1.13;0.50;;;;;;;13.39;52.90;98043.41;6185947;23;20599;-88
2023/04/02 00:48:31;;;;;;;1.60;0.63;;;;;;;13.48;52.61;98034.75;6186392;23;20243;-88
2023/04/02 00:51:21;;;;;;;2.00;0.63;;;;;;;13.45;52.40;98037.63;6186249;23;20163;-88
2023/04/02 00:53:50;;;;;;;2.33;0.80;;;;;;;13.14;53.21;98020.03;6186610;23;20142;-88
2023/04/02 00:56:28;;;;;;;1.10;0.60;;;;;;;12.54;55.40;98037.03;6186527;23;20146;-88
2023/04/02 00:58:56;;;;;;;0.57;0.40;;;;;;;12.77;55.08;98038.72;6159826;23;20492;-86
2023/04/02 01:01:33;;;;;;;1.63;0.93;;;;;;;12.87;54.79;98042.28;6185813;23;20177;-87
2023/04/02 01:04:00;;;;;;;1.10;0.70;;;;;;;12.83;54.64;98048.75;6186292;23;20141;-88
2023/04/02 01:06:33;;;;;;;2.63;0.57;;;;;;;13.07;54.21;98053.06;6185734;23;20264;-88
2023/04/02 01:09:20;;;;;;;1.30;0.83;;;;;;;13.04;54.13;98054.09;6186527;23;20153;-87
2023/04/02 01:12:06;;;;;;;1.93;0.57;;;;;;;12.89;54.57;98055.31;6185908;23;20166;-88
2023/04/02 01:14:43;;;;;;;1.13;0.50;;;;;;;13.03;54.29;98062.94;6186102;23;20138;-88
2023/04/02 01:17:47;;;;;;;0.80;0.50;;;;;;;12.91;54.12;98053.41;6186156;23;20136;-87
2023/04/02 01:20:50;;;;;;;0.50;0.50;;;;;;;12.53;55.24;98056.38;6159670;23;20481;-87
2023/04/02 01:23:51;;;;;;;2.70;0.60;;;;;;;12.29;56.26;98053.84;6185641;23;20169;-87
2023/04/02 01:26:27;;;;;;;0.77;0.50;;;;;;;12.48;55.98;98055.91;6159595;23;20530;-87
2023/04/02 01:29:09;;;;;;;0.80;0.47;;;;;;;12.68;54.64;98055.19;6186288;23;20141;-87
2023/04/02 01:31:36;;;;;;;0.83;0.40;;;;;;;12.48;55.36;98050.66;6159614;23;20543;-87
2023/04/02 01:34:06;;;;;;;1.00;0.40;;;;;;;12.42;55.59;98051.13;6185560;23;20153;-87
2023/04/02 01:36:50;;;;;;;1.43;0.70;;;;;;;12.44;54.93;98054.50;6185875;23;20147;-87
2023/04/02 01:39:43;;;;;;;1.13;0.50;;;;;;;12.50;54.80;98059.25;6186248;23;20138;-87
2023/04/02 01:42:27;;;;;;;1.17;0.77;;;;;;;12.69;53.99;98053.41;6186199;23;20197;-87
2023/04/02 01:45:00;;;;;;;0.57;0.40;;;;;;;12.59;54.37;98058.56;6185817;23;20192;-86
2023/04/02 01:47:27;;;;;;;1.00;0.40;;;;;;;12.65;54.04;98058.09;6185818;23;20165;-87
2023/04/02 01:50:13;;;;;;;2.93;0.70;;;;;;;12.56;54.29;98053.53;6185430;23;20146;-87
2023/04/02 01:52:42;;;;;;;0.50;0.43;;;;;;;12.57;54.30;98049.94;6185868;23;20133;-87
2023/04/02 01:55:11;;;;;;;0.67;0.50;;;;;;;12.63;53.94;98051.28;6185496;23;20625;-87
2023/04/02 01:57:40;;;;;;;0.97;0.50;;;;;;;12.75;53.80;98056.41;6159470;23;20611;-87
2023/04/02 02:00:11;;;;;;;1.63;0.33;;;;;;;12.72;53.74;98053.16;6185404;23;20153;-87
2023/04/02 02:02:36;;;;;;;1.13;0.53;;;;;;;12.62;54.00;98049.59;6186101;23;20134;-86
2023/04/02 02:05:02;;;;;;;0.50;0.40;;;;;;;12.34;54.65;98054.34;6185217;23;20256;-88
2023/04/02 02:07:29;;;;;;;0.70;0.40;;;;;;;12.55;54.58;98051.03;6185378;23;20154;-88
2023/04/02 02:09:55;;;;;;;0.60;0.40;;;;;;;12.77;53.29;98043.13;6185688;23;20154;-87
2023/04/02 02:12:21;;;;;;;0.50;0.37;;;;;;;12.53;54.05;98047.66;6185221;23;20776;-87
2023/04/02 02:14:51;;;;;;;0.60;0.30;;;;;;;12.53;54.05;98038.00;6185345;23;20150;-87
2023/04/02 02:17:20;;;;;;;1.00;0.50;;;;;;;12.30;54.12;98044.19;6185358;23;20150;-87
2023/04/02 02:19:52;;;;;;;0.30;0.30;;;;;;;12.48;53.96;98041.94;6159284;23;20184;-87
2023/04/02 02:22:36;;;;;;;1.53;0.40;;;;;;;12.85;52.23;98043.34;6186363;23;20593;-87
2023/04/02 02:25:05;;;;;;;0.60;0.40;;;;;;;12.93;52.04;98036.53;6159286;23;20192;-87
2023/04/02 02:27:33;;;;;;;0.73;0.43;;;;;;;12.93;51.36;98035.69;6185652;23;20211;-88
2023/04/02 02:30:14;;;;;;;0.97;0.33;;;;;;;13.02;51.61;98034.97;6159304;23;20161;-88
2023/04/02 02:32:48;;;;;;;1.90;0.60;;;;;;;13.01;50.97;98035.94;6159316;23;20145;-88
2023/04/02 02:35:22;;;;;;;0.70;0.50;;;;;;;12.67;52.14;98040.38;6187018;23;20565;-87
2023/04/02 02:38:12;;;;;;;0.77;0.40;;;;;;;12.87;52.61;98033.53;6161291;23;20233;-87
2023/04/02 02:40:44;;;;;;;1.60;0.80;;;;;;;12.94;51.68;98046.09;6141496;23;20601;-87
2023/04/02 02:43:13;;;;;;;0.50;0.37;;;;;;;12.84;51.49;98046.97;6187576;23;20148;-88
2023/04/02 02:45:41;;;;;;;0.70;0.47;;;;;;;13.04;51.65;98042.72;6187378;23;20200;-87
2023/04/02 02:48:13;;;;;;;0.60;0.40;;;;;;;13.09;51.24;98045.88;6187101;23;20150;-88
2023/04/02 02:50:40;;;;;;;0.77;0.50;;;;;;;12.87;51.34;98042.28;6187780;23;20214;-88
2023/04/02 02:53:18;;;;;;;0.60;0.40;;;;;;;12.68;52.09;98044.66;6187832;23;20154;-88
2023/04/02 02:55:46;;;;;;;0.93;0.43;;;;;;;12.77;51.66;98049.22;6187723;23;20138;-88
2023/04/02 02:58:16;;;;;;;0.73;0.40;;;;;;;12.87;50.80;98058.06;6187060;23;20219;-87
2023/04/02 03:00:42;;;;;;;0.60;0.40;;;;;;;12.86;51.45;98066.91;6187362;23;20137;-88
2023/04/02 03:03:12;;;;;;;1.03;0.50;;;;;;;12.94;50.83;98063.69;6160933;23;20153;-87
2023/04/02 03:05:39;;;;;;;0.37;0.20;;;;;;;13.15;50.51;98061.16;6186935;23;20181;-88
2023/04/02 03:08:12;;;;;;;1.13;0.30;;;;;;;13.31;50.39;98070.31;6186972;23;20157;-88
2023/04/02 03:11:14;;;;;;;0.60;0.30;;;;;;;13.57;49.67;98068.25;6186757;23;20204;-87
2023/04/02 03:13:46;;;;;;;1.60;0.50;;;;;;;13.66;49.39;98067.47;6162485;23;20158;-88
2023/04/02 03:16:14;;;;;;;0.33;0.30;;;;;;;13.80;49.06;98072.44;6187592;23;20131;-88
2023/04/02 03:18:56;;;;;;;1.33;0.40;;;;;;;13.87;48.75;98072.75;6187466;23;20157;-88
2023/04/02 03:21:38;;;;;;;0.70;0.20;;;;;;;13.93;48.96;98070.47;6187898;23;20547;-88
2023/04/02 03:24:34;;;;;;;0.60;0.30;;;;;;;13.89;48.76;98076.94;6160813;23;20567;-88
2023/04/02 03:27:14;;;;;;;0.33;0.20;;;;;;;13.78;49.08;98077.00;6187080;23;20241;-87
2023/04/02 03:29:57;;;;;;;0.53;0.37;;;;;;;13.74;48.97;98074.72;6187150;23;20556;-88
2023/04/02 03:32:28;;;;;;;0.70;0.40;;;;;;;13.71;48.93;98081.09;6187068;23;20142;-88
2023/04/02 03:35:39;;;;;;;0.50;0.30;;;;;;;13.53;49.82;98082.59;6160756;23;20139;-88
2023/04/02 03:38:21;;;;;;;0.40;0.20;;;;;;;13.55;49.90;98091.19;6187369;23;20149;-88
2023/04/02 03:41:05;;;;;;;1.03;0.30;;;;;;;13.52;49.93;98080.94;6161326;23;20487;-88
2023/04/02 03:43:38;;;;;;;0.60;0.30;;;;;;;13.41;49.20;98088.88;6186577;23;20165;-88
2023/04/02 03:46:15;;;;;;;0.57;0.33;;;;;;;13.53;49.16;98079.97;6160205;23;20171;-88
2023/04/02 03:48:51;;;;;;;0.30;0.30;;;;;;;13.60;48.84;98086.38;6160596;23;20141;-88
2023/04/02 03:51:23;;;;;;;1.33;0.40;;;;;;;13.45;48.79;98085.00;6160638;23;20161;-88
2023/04/02 03:53:49;;;;;;;0.40;0.30;;;;;;;13.57;48.71;98084.03;6160611;23;20154;-88
2023/04/02 03:56:39;;;;;;;0.37;0.20;;;;;;;13.55;48.26;98092.03;6186840;23;20149;-88
2023/04/02 03:59:33;;;;;;;0.77;0.20;;;;;;;13.61;48.43;98084.59;6186827;23;20149;-88
2023/04/02 04:02:18;;;;;;;0.20;0.20;;;;;;;13.74;48.21;98091.38;6186820;23;20469;-87
2023/04/02 04:04:47;;;;;;;1.03;0.30;;;;;;;13.82;48.50;98096.84;6186319;23;20465;-88
2023/04/02 04:07:31;;;;;;;4.07;0.37;;;;;;;13.86;48.57;98098.25;6186401;23;20150;-88
2023/04/02 04:09:59;;;;;;;2.10;0.33;;;;;;;13.87;48.46;98097.31;6187092;23;20223;-88
2023/04/02 04:12:45;;;;;;;0.93;0.30;;;;;;;13.88;48.21;98091.09;6186324;23;20167;-88
2023/04/02 04:15:29;;;;;;;0.83;0.33;;;;;;;13.93;48.22;98094.19;6186728;23;20204;-87
2023/04/02 04:18:33;;;;;;;0.53;0.33;;;;;;;13.90;48.10;98098.84;6160267;23;20248;-88
2023/04/02 04:21:02;;;;;;;2.13;0.93;;;;;;;13.81;48.37;98103.06;6165130;23;20162;-88
2023/04/02 04:23:36;;;;;;;1.03;0.60;;;;;;;13.80;49.22;98114.59;6186275;23;20224;-88
2023/04/02 04:26:18;;;;;;;2.17;0.90;;;;;;;13.83;48.35;98116.97;6186483;23;20177;-88
2023/04/02 04:29:08;;;;;;;2.30;0.73;;;;;;;13.86;48.94;98119.34;6186228;23;20154;-88
2023/04/02 04:31:37;;;;;;;1.37;0.50;;;;;;;13.84;48.46;98113.38;6186517;23;20148;-88
2023/04/02 04:34:10;;;;;;;1.10;0.40;;;;;;;13.88;48.43;98129.75;6186706;23;20154;-88
2023/04/02 04:36:46;;;;;;;1.27;0.67;;;;;;;13.97;47.77;98129.84;6186481;23;20527;-88
2023/04/02 04:39:22;;;;;;;1.57;0.50;;;;;;;14.05;47.85;98131.84;6186028;23;20552;-88
2023/04/02 04:41:50;;;;;;;0.70;0.40;;;;;;;14.12;47.70;98133.84;6186420;23;20133;-88
2023/04/02 04:44:18;;;;;;;1.17;0.50;;;;;;;14.24;46.41;98136.41;6186615;23;20161;-88
2023/04/02 04:46:51;;;;;;;1.73;0.73;;;;;;;14.37;46.44;98132.66;6186360;23;20153;-88
2023/04/02 04:49:25;;;;;;;3.77;1.23;;;;;;;14.31;46.89;98138.44;6160063;23;20165;-88
2023/04/02 04:51:56;;;;;;;13.50;5.43;;;;;;;14.32;46.93;98139.28;6186008;23;20193;-88
2023/04/02 04:54:25;;;;;;;10.80;4.50;;;;;;;14.38;46.80;98137.00;6185955;23;20143;-88
2023/04/02 04:56:56;;;;;;;4.37;1.93;;;;;;;14.28;47.48;98133.38;6186299;23;20150;-88
2023/04/02 04:59:29;;;;;;;3.00;0.90;;;;;;;14.15;47.95;98119.56;6186272;23;20141;-88
2023/04/02 05:02:04;;;;;;;2.17;0.73;;;;;;;14.07;47.84;98130.75;6186586;23;20148;-88
2023/04/02 05:04:35;;;;;;;0.93;0.30;;;;;;;14.04;47.93;98138.09;6186516;23;20557;-88
2023/04/02 05:07:18;;;;;;;1.03;0.40;;;;;;;14.19;47.06;98136.81;6186180;23;20141;-88
2023/04/02 05:09:50;;;;;;;0.77;0.40;;;;;;;13.97;48.04;98131.63;6186172;23;20148;-88
2023/04/02 05:12:35;;;;;;;0.73;0.30;;;;;;;13.89;48.15;98126.16;6185758;23;20158;-88
2023/04/02 05:15:19;;;;;;;0.40;0.30;;;;;;;14.00;48.04;98134.00;6186140;23;20134;-88
2023/04/02 05:17:52;;;;;;;0.97;0.43;;;;;;;14.10;47.33;98138.41;6159661;23;20475;-88
2023/04/02 05:20:25;;;;;;;1.03;0.40;;;;;;;14.28;46.81;98140.50;6185738;23;20571;-88
2023/04/02 05:23:04;;;;;;;0.90;0.30;;;;;;;14.27;46.46;98141.44;6185759;23;20146;-88
2023/04/02 05:25:31;;;;;;;0.57;0.40;;;;;;;14.29;45.91;98135.06;6185928;23;20162;-87
2023/04/02 05:28:11;;;;;;;1.00;0.30;;;;;;;14.42;46.16;98133.13;6185656;23;20150;-88
2023/04/02 05:30:45;;;;;;;0.97;0.33;;;;;;;14.50;45.46;98133.31;6159678;23;20216;-88
2023/04/02 05:33:22;;;;;;;0.83;0.30;;;;;;;14.52;46.06;98133.16;6185633;23;20142;-88
2023/04/02 05:35:55;;;;;;;0.87;0.30;;;;;;;14.67;45.97;98129.25;6185587;23;20142;-87
2023/04/02 05:38:24;;;;;;;0.83;0.30;;;;;;;14.63;45.58;98127.81;6185944;23;20162;-88
2023/04/02 05:41:03;;;;;;;4.03;0.40;;;;;;;14.69;45.19;98132.59;6185902;23;20155;-87
2023/04/02 05:43:32;;;;;;;1.07;0.27;;;;;;;14.70;44.64;98135.09;6185899;23;20142;-88
2023/04/02 05:46:02;;;;;;;6.83;0.60;;;;;;;14.69;44.14;98137.88;6185440;23;20178;-88
2023/04/02 05:48:34;;;;;;;3.50;1.37;;;;;;;14.76;44.12;98131.94;6185569;23;20139;-88
2023/04/02 05:51:03;;;;;;;3.93;1.10;;;;;;;14.80;44.25;98135.16;6185834;23;20159;-88
2023/04/02 05:53:29;;;;;;;3.30;1.13;;;;;;;15.07;43.57;98131.91;6185818;23;20150;-88
2023/04/02 05:56:06;;;;;;;3.00;0.97;;;;;;;15.14;43.46;98130.44;6185788;23;20159;-88
2023/04/02 05:58:40;;;;;;;3.43;0.70;;;;;;;15.57;42.79;98131.00;6186036;23;20176;-88
2023/04/02 06:01:16;;;;;;;1.67;0.50;;;;;;;15.57;42.18;98135.44;6185418;23;20145;-88
2023/04/02 06:03:50;;;;;;;2.00;0.57;;;;;;;15.79;41.93;98140.50;6159357;23;20210;-89
2023/04/02 06:06:40;;;;;;;1.57;0.47;;;;;;;15.89;41.83;98130.78;6159281;23;20563;-88
2023/04/02 06:09:19;;;;;;;1.47;0.60;;;;;;;16.19;40.86;98138.59;6166986;23;20156;-89
2023/04/02 06:11:51;;;;;;;1.27;0.50;;;;;;;16.13;40.89;98135.66;6175876;23;20631;-88
2023/04/02 06:14:17;;;;;;;1.87;0.30;;;;;;;16.07;41.44;98137.03;6176638;23;20541;-88
2023/04/02 06:16:44;;;;;;;1.43;0.70;;;;;;;16.31;40.67;98131.31;6185574;23;20177;-88
2023/04/02 06:19:22;;;;;;;0.67;0.30;;;;;;;16.42;41.07;98133.81;6185675;23;20173;-88
2023/04/02 06:21:51;;;;;;;1.33;0.53;;;;;;;16.73;40.34;98143.25;6185464;23;20539;-88
2023/04/02 06:24:23;;;;;;;0.87;0.50;;;;;;;16.87;40.09;98140.16;6185182;23;20590;-88
2023/04/02 06:26:56;;;;;;;0.80;0.30;;;;;;;17.06;39.26;98141.88;6185625;23;20134;-88
2023/04/02 06:29:37;;;;;;;2.57;0.70;;;;;;;17.18;39.65;98151.34;6185996;23;20162;-88
2023/04/02 06:32:05;;;;;;;0.77;0.23;;;;;;;17.13;39.61;98150.94;6185317;23;20145;-88
2023/04/02 06:34:32;;;;;;;1.33;0.20;;;;;;;16.95;38.69;98157.97;6185241;23;20151;-88
2023/04/02 06:37:03;;;;;;;0.20;0.20;;;;;;;16.78;39.92;98156.06;6183933;23;20181;-88
2023/04/02 06:39:29;;;;;;;0.53;0.30;;;;;;;16.83;40.14;98153.81;6185060;23;20131;-88
2023/04/02 06:42:03;;;;;;;0.60;0.30;;;;;;;17.39;40.68;98167.84;6183847;23;20491;-88
2023/04/02 06:44:35;;;;;;;0.80;0.37;;;;;;;18.36;39.13;98156.47;6185512;23;20146;-89
2023/04/02 06:47:13;;;;;;;0.67;0.20;;;;;;;18.76;37.18;98165.78;6185559;23;20161;-89
2023/04/02 06:49:44;;;;;;;1.77;0.30;;;;;;;19.33;36.50;98165.09;6183953;23;20149;-88
2023/04/02 06:52:34;;;;;;;0.47;0.20;;;;;;;19.86;36.47;98164.84;6185856;23;20148;-88
2023/04/02 06:55:03;;;;;;;0.93;0.30;;;;;;;20.19;34.24;98163.91;6184677;23;20139;-89
2023/04/02 06:57:31;;;;;;;0.73;0.20;;;;;;;20.57;35.71;98166.97;6183886;23;20177;-89
2023/04/02 06:59:57;;;;;;;1.10;0.27;;;;;;;20.90;34.45;98165.91;6185139;23;20146;-89
2023/04/02 07:02:22;;;;;;;0.60;0.13;;;;;;;21.32;35.25;98174.53;6185164;23;20157;-88
2023/04/02 07:04:48;;;;;;;0.30;0.20;;;;;;;21.63;33.03;98166.56;6185687;23;20185;-89
2023/04/02 07:07:13;;;;;;;0.60;0.27;;;;;;;21.82;32.89;98163.47;6185140;23;20151;-89
2023/04/02 07:09:39;;;;;;;0.37;0.20;;;;;;;22.28;32.17;98169.72;6185768;23;20224;-89
2023/04/02 07:12:12;;;;;;;1.40;0.10;;;;;;;22.68;31.93;98170.44;6184984;23;20158;-89
2023/04/02 07:14:37;;;;;;;0.50;0.20;;;;;;;22.69;30.44;98180.13;6159130;23;20583;-88
2023/04/02 07:17:03;;;;;;;1.10;0.30;;;;;;;22.32;31.31;98176.38;6158923;23;20249;-89
2023/04/02 07:19:28;;;;;;;0.70;0.40;;;;;;;21.76;31.21;98182.00;6185031;23;20151;-89
2023/04/02 07:21:54;;;;;;;0.37;0.13;;;;;;;21.80;32.03;98178.00;6160103;23;20150;-88
2023/04/02 07:24:19;;;;;;;0.37;0.10;;;;;;;21.26;31.57;98190.34;6160736;23;20481;-89
2023/04/02 07:26:46;;;;;;;0.30;0.20;;;;;;;20.78;32.18;98191.22;6160689;23;20518;-87
2023/04/02 07:29:16;;;;;;;0.87;0.10;;;;;;;20.54;33.03;98201.91;6160733;23;20495;-89
2023/04/02 07:31:42;;;;;;;1.13;0.30;;;;;;;20.46;33.24;98191.25;6186992;23;20574;-88
2023/04/02 07:34:08;;;;;;;1.03;0.47;;;;;;;20.39;33.06;98192.91;6186656;23;20225;-89
2023/04/02 07:36:34;;;;;;;1.07;0.20;;;;;;;19.99;33.96;98198.94;6186798;23;20143;-88
2023/04/02 07:39:00;;;;;;;1.33;0.20;;;;;;;19.27;34.62;98210.06;6186721;23;20146;-88
2023/04/02 07:41:26;;;;;;;0.57;0.27;;;;;;;18.85;34.84;98218.75;6186987;23;20150;-88
2023/04/02 07:43:51;;;;;;;1.03;0.20;;;;;;;18.97;35.05;98216.69;6186607;23;20161;-89
2023/04/02 07:46:18;;;;;;;0.67;0.23;;;;;;;18.86;34.73;98225.75;6186457;23;20253;-88
2023/04/02 07:48:45;;;;;;;0.67;0.23;;;;;;;18.85;35.42;98223.22;6186827;23;20150;-88
2023/04/02 07:51:21;;;;;;;0.40;0.30;;;;;;;18.91;35.24;98214.66;6186428;23;20150;-89
2023/04/02 07:53:49;;;;;;;0.60;0.40;;;;;;;19.13;34.42;98205.34;6160504;23;20149;-89
2023/04/02 07:56:18;;;;;;;0.67;0.20;;;;;;;18.95;35.79;98211.53;6186830;23;20239;-87
2023/04/02 07:58:44;;;;;;;0.47;0.20;;;;;;;18.92;35.37;98217.16;6186631;23;20161;-89
2023/04/02 08:01:25;;;;;;;2.17;0.30;;;;;;;18.87;35.46;98215.94;6186491;23;20216;-89
2023/04/02 08:03:51;;;;;;;0.63;0.20;;;;;;;18.87;36.03;98210.63;6186605;23;20232;-88
2023/04/02 08:06:17;;;;;;;1.23;0.33;;;;;;;18.87;35.83;98211.47;6160281;23;20178;-88
2023/04/02 08:08:45;;;;;;;0.20;0.20;;;;;;;18.99;35.66;98209.41;6186407;23;20525;-90
2023/04/02 08:11:10;;;;;;;0.37;0.23;;;;;;;19.16;34.74;98210.31;6169874;23;20176;-89
2023/04/02 08:13:37;;;;;;;0.40;0.30;;;;;;;19.29;34.59;98208.06;6186390;23;20559;-88
2023/04/02 08:16:04;;;;;;;1.87;0.30;;;;;;;19.22;36.13;98201.72;6185182;23;20511;-88
2023/04/02 08:18:30;;;;;;;0.50;0.30;;;;;;;19.20;35.37;98211.69;6186609;23;20149;-87
2023/04/02 08:20:56;;;;;;;1.20;0.40;;;;;;;19.07;36.28;98205.97;6186291;23;20289;-89
2023/04/02 08:23:22;;;;;;;0.93;0.40;;;;;;;19.18;35.26;98206.53;6186303;23;20174;-88
2023/04/02 08:25:49;;;;;;;1.33;0.40;;;;;;;19.31;34.29;98200.81;6186122;23;20177;-89
2023/04/02 08:28:14;;;;;;;0.20;0.13;;;;;;;19.16;35.04;98202.34;6186938;23;20159;-89
2023/04/02 08:30:41;;;;;;;0.37;0.23;;;;;;;18.78;35.65;98206.25;6186220;23;20149;-89
2023/04/02 08:33:06;;;;;;;1.03;0.30;;;;;;;18.68;35.83;98205.53;6184891;23;20245;-89
2023/04/02 08:35:32;;;;;;;0.57;0.30;;;;;;;18.91;36.00;98202.22;6185035;23;20216;-89
2023/04/02 08:37:57;;;;;;;0.70;0.30;;;;;;;19.01;36.34;98202.94;6186203;23;20185;-90
2023/04/02 08:40:39;;;;;;;1.13;0.30;;;;;;;18.93;34.88;98200.22;6186735;23;20146;-88
2023/04/02 08:43:24;;;;;;;0.60;0.30;;;;;;;19.16;36.42;98197.03;6186748;23;20142;-88
2023/04/02 08:46:03;;;;;;;0.80;0.30;;;;;;;19.50;34.97;98197.91;6186025;23;20178;-89
2023/04/02 08:48:31;;;;;;;1.33;0.50;;;;;;;19.68;35.53;98205.81;6186834;23;20139;-87
2023/04/02 08:50:58;;;;;;;0.50;0.30;;;;;;;19.98;34.93;98198.13;6186695;23;20151;-88
2023/04/02 08:53:27;;;;;;;0.77;0.30;;;;;;;20.12;34.05;98200.16;6185205;23;20154;-88
2023/04/02 08:56:04;;;;;;;0.77;0.20;;;;;;;19.71;34.14;98201.00;6186315;23;20143;-89
2023/04/02 08:58:52;;;;;;;0.40;0.30;;;;;;;19.66;33.96;98208.63;6186710;23;20217;-89
2023/04/02 09:01:33;;;;;;;0.80;0.30;;;;;;;19.73;34.08;98215.00;6186689;23;20130;-89
2023/04/02 09:03:59;;;;;;;0.47;0.20;;;;;;;19.77;34.11;98203.03;6184688;23;20585;-89
2023/04/02 09:06:27;;;;;;;1.07;0.40;;;;;;;19.75;33.86;98206.84;6184576;23;20249;-89
2023/04/02 09:08:55;;;;;;;0.90;0.30;;;;;;;19.88;32.83;98202.75;6184583;23;20154;-89
2023/04/02 09:11:20;;;;;;;2.73;0.40;;;;;;;19.95;34.48;98205.56;6185705;23;20249;-89
2023/04/02 09:13:50;;;;;;;0.83;0.37;;;;;;;20.26;34.20;98209.34;6159730;23;20182;-88
2023/04/02 09:16:21;;;;;;;0.73;0.20;;;;;;;20.39;33.95;98196.38;6185768;23;20142;-89
2023/04/02 09:18:50;;;;;;;0.77;0.20;;;;;;;20.78;33.72;98199.22;6185811;23;20222;-89
2023/04/02 09:21:33;;;;;;;0.93;0.43;;;;;;;20.86;33.67;98196.53;6159758;23;20150;-90
2023/04/02 09:24:03;;;;;;;0.40;0.13;;;;;;;21.13;31.63;98185.56;6186120;23;20134;-90
2023/04/02 09:26:31;;;;;;;0.83;0.27;;;;;;;21.26;32.97;98185.84;6158900;23;20259;-89
2023/04/02 09:29:30;;;;;;;0.30;0.20;;;;;;;21.61;32.33;98173.91;6185681;23;20151;-88
2023/04/02 09:32:29;;;;;;;1.40;0.20;;;;;;;22.06;31.88;98167.88;6186352;23;20135;-89
2023/04/02 09:35:12;;;;;;;1.33;0.63;;;;;;;22.04;30.96;98170.72;6159868;23;20687;-91
2023/04/02 09:37:47;;;;;;;1.30;0.40;;;;;;;22.26;31.27;98163.72;6159800;23;20189;-90
2023/04/02 09:41:03;;;;;;;;;;;;;;;;;;;;;
2023/04/02 09:43:22;;;;;;;0.30;0.10;;;;;;;22.23;30.83;98158.75;6178722;23;20151;-89
2023/04/02 09:46:00;;;;;;;0.23;0.10;;;;;;;22.39;31.32;98158.63;6159830;23;20186;-90
2023/04/02 09:49:04;;;;;;;1.20;0.20;;;;;;;22.58;30.28;98158.16;6185464;23;20542;-90
2023/04/02 09:51:33;;;;;;;3.93;1.00;;;;;;;22.29;28.63;98152.69;6140626;23;20178;-88
2023/04/02 09:54:02;;;;;;;0.47;0.20;;;;;;;21.91;26.89;98165.09;6159946;23;20535;-88
2023/04/02 09:56:28;;;;;;;1.97;0.07;;;;;;;21.68;26.93;98163.38;6186093;23;20170;-88
2023/04/02 09:59:12;;;;;;;0.30;0.10;;;;;;;21.67;29.10;98167.06;6186177;23;20146;-88
2023/04/02 10:01:40;;;;;;;0.93;0.30;;;;;;;22.03;29.97;98171.72;6185373;23;20237;-89
2023/04/02 10:04:25;;;;;;;2.83;0.60;;;;;;;22.13;29.98;98171.50;6185326;23;20167;-88
2023/04/02 10:06:52;;;;;;;0.57;0.30;;;;;;;22.00;29.99;98168.56;6185138;23;20169;-88
2023/04/02 10:09:26;;;;;;;0.30;0.10;;;;;;;22.22;30.24;98154.41;6185394;23;20181;-88
2023/04/02 10:11:54;;;;;;;0.53;0.23;;;;;;;22.36;29.09;98166.16;6185468;23;20165;-89
2023/04/02 10:14:24;;;;;;;1.10;0.30;;;;;;;22.16;28.16;98152.47;6185670;23;20161;-88
2023/04/02 10:16:55;;;;;;;0.87;0.30;;;;;;;21.88;29.17;98161.97;6185704;23;20153;-88
2023/04/02 10:19:29;;;;;;;2.17;0.20;;;;;;;21.76;28.13;98155.31;6186091;23;20194;-89
2023/04/02 10:21:56;;;;;;;0.37;0.17;;;;;;;21.81;28.26;98159.13;6185614;23;20196;-88
2023/04/02 10:24:26;;;;;;;0.20;0.10;;;;;;;21.64;28.76;98156.72;6185291;23;20151;-88
2023/04/02 10:27:28;;;;;;;0.27;0.10;;;;;;;21.86;26.78;98161.31;6185645;23;20155;-90
2023/04/02 10:30:12;;;;;;;0.20;0.20;;;;;;;21.62;27.32;98159.56;6185982;23;20158;-89
2023/04/02 10:32:50;;;;;;;0.10;0.10;;;;;;;21.97;28.85;98148.41;6185272;23;20150;-87
2023/04/02 10:35:30;;;;;;;2.53;0.27;;;;;;;22.40;27.76;98146.94;6185648;23;20271;-87
2023/04/02 10:38:50;;;;;;;0.10;0.00;;;;;;;22.69;25.96;98148.06;6185291;23;20143;-88
2023/04/02 10:41:32;;;;;;;0.43;0.10;;;;;;;22.81;26.21;98143.94;6013748;23;20154;-88
2023/04/02 10:44:12;;;;;;;0.40;0.00;;;;;;;23.06;25.94;98150.72;6159070;23;20170;-87
2023/04/02 10:46:49;;;;;;;0.10;0.00;;;;;;;23.44;27.07;98149.63;6159264;23;20182;-88
2023/04/02 10:49:34;;;;;;;1.03;0.10;;;;;;;23.82;25.12;98137.75;6159608;23;20138;-88
2023/04/02 10:52:20;;;;;;;0.17;0.07;;;;;;;23.65;24.76;98135.50;6159321;23;20143;-87
2023/04/02 10:54:49;;;;;;;1.10;0.10;;;;;;;23.56;25.57;98137.44;6159389;23;20135;-88
2023/04/02 10:57:30;;;;;;;0.30;0.13;;;;;;;23.58;24.71;98130.09;6186824;23;20150;-88
2023/04/02 11:00:07;;;;;;;2.67;0.20;;;;;;;23.83;26.27;98131.41;6161085;23;20174;-88
2023/04/02 11:02:37;;;;;;;0.13;0.00;;;;;;;23.76;24.91;98132.34;6187388;23;20523;-88
2023/04/02 11:05:14;;;;;;;0.40;0.17;;;;;;;24.11;25.90;98114.66;6186898;23;20321;-88
2023/04/02 11:07:52;;;;;;;1.20;0.23;;;;;;;24.28;26.19;98124.06;6187755;23;20142;-87
2023/04/02 11:10:19;;;;;;;0.10;0.10;;;;;;;24.43;25.17;98122.16;6186806;23;20136;-88
2023/04/02 11:12:58;;;;;;;0.63;0.20;;;;;;;24.62;26.10;98120.66;6160869;23;20574;-89
2023/04/02 11:15:24;;;;;;;0.77;0.10;;;;;;;24.52;26.31;98112.97;6160915;23;20146;-89
2023/04/02 11:17:50;;;;;;;0.30;0.10;;;;;;;24.78;24.07;98118.56;6186933;23;20146;-88
2023/04/02 11:20:47;;;;;;;0.27;0.10;;;;;;;25.10;25.62;98116.31;6187894;23;20151;-88
2023/04/02 11:23:18;;;;;;;0.10;0.10;;;;;;;25.34;24.31;98113.16;6187779;23;20151;-88
2023/04/02 11:25:45;;;;;;;1.60;0.43;;;;;;;25.44;24.92;98113.59;6160754;23;20175;-88
2023/04/02 11:28:18;;;;;;;0.20;0.20;;;;;;;25.56;23.71;98109.34;6186830;23;20566;-87
2023/04/02 11:30:47;;;;;;;0.53;0.10;;;;;;;25.33;23.51;98114.16;6187067;23;20150;-88
2023/04/02 11:33:32;;;;;;;0.00;0.00;;;;;;;25.29;23.19;98110.25;6186743;23;20150;-87
2023/04/02 11:35:58;;;;;;;0.90;0.17;;;;;;;25.64;22.70;98098.44;6187021;23;20170;-87
2023/04/02 11:38:23;;;;;;;0.50;0.20;;;;;;;25.91;24.80;98092.13;6187040;23;20146;-87
2023/04/02 11:40:50;;;;;;;1.10;0.10;;;;;;;26.14;22.77;98098.00;6186617;23;20521;-87
2023/04/02 11:43:34;;;;;;;0.20;0.10;;;;;;;26.37;22.18;98099.44;6160694;23;20189;-87
2023/04/02 11:46:14;;;;;;;0.10;0.00;;;;;;;26.42;23.14;98097.81;6186493;23;20178;-87
2023/04/02 11:48:40;;;;;;;0.23;0.10;;;;;;;26.50;24.27;98094.09;6186581;23;20351;-87
2023/04/02 11:51:35;;;;;;;0.70;0.10;;;;;;;26.76;23.18;98088.69;6186629;23;20174;-87
2023/04/02 11:54:00;;;;;;;0.68;0.17;;;;;;;26.86;23.08;98078.38;6186429;23;20151;-87
2023/04/02 11:56:35;;;;;;;0.52;0.20;;;;;;;26.84;23.25;98073.22;6186524;23;20149;-87
2023/04/02 11:59:17;;;;;;;0.08;0.00;;;;;;;26.82;22.20;98067.22;6187246;23;20523;-87
2023/04/02 12:02:09;;;;;;;0.10;0.05;;;;;;;26.99;22.17;98070.28;6160291;23;20146;-87
2023/04/02 12:04:37;;;;;;;0.80;0.22;;;;;;;26.99;21.99;98078.34;6186353;23;20158;-88
2023/04/02 12:07:33;;;;;;;0.10;0.00;;;;;;;26.99;22.13;98072.97;6186075;23;20498;-87
2023/04/02 12:10:02;;;;;;;0.30;0.10;;;;;;;27.04;22.49;98070.50;6160444;23;20523;-87